createdAt,value
2018-02-14T00:00:34.758Z,7.00
2018-02-14T00:05:42.329Z,6.70
2018-02-14T00:15:59.105Z,6.00
2018-02-14T00:21:05.279Z,7.07
2018-02-14T00:26:13.276Z,5.80
2018-02-14T00:31:20.644Z,7.93
2018-02-14T00:36:28.170Z,6.57
2018-02-14T00:41:31.464Z,6.43
2018-02-14T00:46:36.345Z,6.77
2018-02-14T00:51:41.870Z,5.47
2018-02-14T00:56:56.983Z,5.70
2018-02-14T01:02:08.269Z,6.70
2018-02-14T01:07:19.684Z,6.77
2018-02-14T01:12:27.074Z,7.47
2018-02-14T01:17:39.046Z,5.67
2018-02-14T01:28:01.133Z,5.47
2018-02-14T01:33:07.993Z,6.00
2018-02-14T01:38:16.847Z,6.90
2018-02-14T01:43:41.783Z,5.40
2018-02-14T01:48:48.092Z,5.10
2018-02-14T01:53:54.600Z,6.47
2018-02-14T01:59:02.377Z,6.20
2018-02-14T02:04:24.229Z,5.90
2018-02-14T02:09:32.878Z,5.10
2018-02-14T02:14:44.788Z,5.00
2018-02-14T02:20:03.289Z,4.60
2018-02-14T02:25:16.142Z,5.40
2018-02-14T02:30:25.214Z,5.00
2018-02-14T02:35:36.200Z,7.07
2018-02-14T02:40:45.766Z,4.97
2018-02-14T02:45:53.403Z,5.33
2018-02-14T02:51:01.506Z,5.93
2018-02-14T02:56:07.720Z,5.60
2018-02-14T03:06:34.313Z,5.00
2018-02-14T03:16:57.412Z,4.90
2018-02-14T03:27:19.939Z,5.50
2018-02-14T03:32:31.949Z,5.40
2018-02-14T03:37:42.778Z,5.00
2018-02-14T03:42:51.458Z,4.63
2018-02-14T03:48:00.648Z,5.70
2018-02-14T03:53:06.440Z,5.33
2018-02-14T03:58:28.057Z,5.13
2018-02-14T04:03:33.209Z,6.43
2018-02-14T04:13:51.965Z,6.00
2018-02-14T04:19:04.219Z,5.93
2018-02-14T04:24:17.524Z,5.90
2018-02-14T04:29:24.741Z,6.90
2018-02-14T04:34:33.847Z,6.47
2018-02-14T04:39:46.259Z,6.33
2018-02-14T04:44:51.481Z,6.10
2018-02-14T04:50:03.368Z,5.63
2018-02-14T04:55:13.444Z,6.10
2018-02-14T05:00:23.338Z,5.77
2018-02-14T05:05:30.991Z,6.03
2018-02-14T05:10:40.352Z,5.90
2018-02-14T05:15:46.594Z,6.07
2018-02-14T05:20:54.009Z,6.50
2018-02-14T05:31:11.680Z,6.50
2018-02-14T05:36:17.886Z,7.20
2018-02-14T05:41:23.758Z,5.33
2018-02-14T05:46:32.670Z,6.30
2018-02-14T05:51:40.320Z,5.70
2018-02-14T05:56:50.929Z,5.10
2018-02-14T06:01:56.382Z,4.70
2018-02-14T06:07:01.099Z,6.07
2018-02-14T06:12:06.383Z,6.30
2018-02-14T06:17:15.229Z,6.13
2018-02-14T06:22:22.945Z,6.73
2018-02-14T06:27:29.267Z,5.90
2018-02-14T06:32:49.168Z,5.97
2018-02-14T06:37:54.013Z,6.07
2018-02-14T06:43:12.749Z,6.60
2018-02-14T06:48:27.782Z,6.10
2018-02-14T06:53:51.958Z,7.70
2018-02-14T07:04:11.053Z,6.47
2018-02-14T07:09:25.749Z,6.67
2018-02-14T07:14:32.520Z,6.17
2018-02-14T07:19:51.520Z,7.77
2018-02-14T07:24:59.819Z,6.80
2018-02-14T07:30:15.552Z,7.67
2018-02-14T07:35:26.071Z,7.53
2018-02-14T07:45:48.351Z,7.63
2018-02-14T07:50:50.915Z,9.30
2018-02-14T07:55:53.500Z,7.20
2018-02-14T08:00:56.042Z,8.27
2018-02-14T08:05:58.597Z,8.17
2018-02-14T08:11:02.802Z,8.37
2018-02-14T08:16:09.774Z,7.20
2018-02-14T08:21:14.724Z,8.97
2018-02-14T08:26:21.738Z,8.70
2018-02-14T08:31:37.328Z,10.00
2018-02-14T08:36:43.984Z,11.27
2018-02-14T08:41:53.572Z,11.10
2018-02-14T08:47:02.792Z,9.17
2018-02-14T08:52:05.447Z,11.17
2018-02-14T08:57:13.696Z,9.40
2018-02-14T09:02:27.397Z,11.40
2018-02-14T09:07:38.216Z,10.60
2018-02-14T09:12:41.569Z,11.00
2018-02-14T09:23:10.240Z,11.67
2018-02-14T09:28:19.002Z,12.50
2018-02-14T09:33:30.513Z,11.70
2018-02-14T09:38:36.941Z,12.40
2018-02-14T09:43:41.090Z,10.53
2018-02-14T09:48:46.161Z,9.90
2018-02-14T09:59:18.286Z,9.67
2018-02-14T10:04:27.417Z,10.97
2018-02-14T10:09:49.695Z,10.40
2018-02-14T10:15:04.105Z,10.20
2018-02-14T10:20:15.579Z,10.80
2018-02-14T10:25:31.311Z,11.00
2018-02-14T10:30:42.829Z,9.23
2018-02-14T10:35:51.880Z,7.63
2018-02-14T10:40:55.927Z,8.47
2018-02-14T10:46:11.182Z,9.10
2018-02-14T10:57:07.693Z,10.70
2018-02-14T11:02:15.843Z,7.43
2018-02-14T11:07:39.270Z,6.80
2018-02-14T11:18:56.651Z,8.23
2018-02-14T11:24:06.747Z,7.03
2018-02-14T11:29:21.580Z,7.10
2018-02-14T11:34:28.324Z,7.03
2018-02-14T11:40:00.185Z,6.07
2018-02-14T11:45:13.665Z,5.20
2018-02-14T11:55:52.240Z,5.40
2018-02-14T12:00:59.823Z,6.80
2018-02-14T12:11:20.435Z,5.80
2018-02-14T12:16:32.321Z,3.90
2018-02-14T12:21:47.273Z,5.27
2018-02-14T12:27:00.065Z,5.00
2018-02-14T12:32:06.780Z,4.40
2018-02-14T12:37:22.677Z,5.33
2018-02-14T12:48:28.332Z,5.30
2018-02-14T12:53:47.176Z,5.30
2018-02-14T12:58:56.642Z,4.40
2018-02-14T13:04:14.562Z,4.67
2018-02-14T13:15:48.020Z,5.07
2018-02-14T13:29:18.771Z,5.83
2018-02-14T13:40:03.088Z,4.83
2018-02-14T14:24:03.519Z,7.70
2018-02-14T14:40:24.396Z,7.37
2018-02-14T14:45:39.841Z,6.10
2018-02-14T14:50:50.191Z,7.60
2018-02-14T14:56:02.365Z,6.97
2018-02-14T15:01:29.759Z,6.50
2018-02-14T15:06:40.873Z,8.50
2018-02-14T15:11:56.841Z,7.30
2018-02-14T15:22:32.163Z,7.73
2018-02-14T15:33:36.504Z,7.97
2018-02-14T15:38:43.835Z,7.87
2018-02-14T15:50:10.550Z,7.97
2018-02-14T15:55:21.975Z,6.77
2018-02-14T16:20:55.210Z,9.00
2018-02-14T16:26:12.625Z,8.43
2018-02-14T17:03:48.675Z,11.03
2018-02-14T17:28:28.864Z,9.60
2018-02-14T17:39:11.918Z,8.83
2018-02-14T17:44:24.183Z,9.57
2018-02-14T17:55:22.533Z,8.10
2018-02-14T18:00:38.564Z,10.17
2018-02-14T18:05:43.231Z,11.57
2018-02-14T18:17:19.508Z,12.60
2018-02-14T18:22:30.008Z,11.80
2018-02-14T18:33:03.937Z,12.13
2018-02-14T18:38:12.252Z,12.70
2018-02-14T18:43:15.456Z,12.17
2018-02-14T18:48:40.897Z,13.23
2018-02-14T18:54:00.214Z,11.73
2018-02-14T18:59:13.685Z,11.73
2018-02-14T19:04:19.222Z,11.33
2018-02-14T19:15:16.697Z,10.47
2018-02-14T19:20:22.101Z,10.70
2018-02-14T19:25:31.156Z,9.57
2018-02-14T19:30:39.149Z,8.90
2018-02-14T19:41:43.296Z,10.37
2018-02-14T19:46:53.906Z,9.23
2018-02-14T19:52:02.108Z,10.47
2018-02-14T19:57:07.065Z,15.70
2018-02-14T20:02:09.969Z,14.70
2018-02-14T20:07:14.230Z,14.50
2018-02-14T20:12:20.008Z,12.77
2018-02-14T20:17:25.267Z,12.90
2018-02-14T20:22:35.001Z,12.10
2018-02-14T20:27:38.878Z,10.00
2018-02-14T20:32:43.029Z,14.10
2018-02-14T20:37:46.096Z,11.77
2018-02-14T20:42:50.265Z,12.17
2018-02-14T20:47:54.169Z,11.83
2018-02-14T20:52:57.123Z,12.87
2018-02-14T20:58:01.069Z,11.63
2018-02-14T21:03:07.007Z,15.70
2018-02-14T21:08:12.110Z,15.23
2018-02-14T21:13:17.684Z,15.37
2018-02-14T21:18:21.989Z,14.80
2018-02-14T21:23:26.087Z,12.63
2018-02-14T21:28:29.088Z,12.97
2018-02-14T21:33:34.622Z,12.97
2018-02-14T21:38:38.101Z,12.50
2018-02-14T21:43:42.514Z,12.87
2018-02-14T21:48:46.759Z,11.20
2018-02-14T21:53:50.754Z,13.60
2018-02-14T21:58:56.266Z,12.57
2018-02-14T22:03:59.782Z,16.00
2018-02-14T22:09:05.642Z,13.90
2018-02-14T22:14:10.489Z,13.00
2018-02-14T22:19:13.636Z,15.70
2018-02-14T22:24:17.805Z,16.43
2018-02-14T22:29:20.980Z,17.50
2018-02-14T22:34:26.977Z,16.20
2018-02-14T22:39:30.915Z,14.77
2018-02-14T22:44:36.741Z,13.10
2018-02-14T22:49:40.636Z,15.13
2018-02-14T22:54:45.373Z,14.07
2018-02-14T22:59:48.872Z,12.87
2018-02-14T23:04:53.569Z,11.80
2018-02-14T23:09:58.846Z,12.13
2018-02-14T23:15:03.624Z,16.00
2018-02-14T23:20:06.668Z,14.17
2018-02-14T23:25:12.330Z,13.43
2018-02-14T23:30:16.978Z,13.23
2018-02-14T23:35:20.235Z,13.40
2018-02-14T23:40:26.655Z,14.40
2018-02-14T23:45:31.335Z,12.63
2018-02-14T23:50:36.506Z,12.07
2018-02-14T23:55:41.193Z,12.80
